createdAt,value
2023-05-22T00:00:54.446Z,27.80
2023-05-22T00:01:54.485Z,27.79
2023-05-22T00:02:54.613Z,27.83
2023-05-22T00:03:54.580Z,27.83
2023-05-22T00:04:54.755Z,27.83
2023-05-22T00:05:54.609Z,27.83
2023-05-22T00:06:54.657Z,27.90
2023-05-22T00:07:54.679Z,27.90
2023-05-22T00:08:54.720Z,27.87
2023-05-22T00:09:54.749Z,27.91
2023-05-22T00:10:54.798Z,27.90
2023-05-22T00:11:54.841Z,27.92
2023-05-22T00:12:54.882Z,27.91
2023-05-22T00:13:54.920Z,27.87
2023-05-22T00:14:54.942Z,27.91
2023-05-22T00:15:54.989Z,27.92
2023-05-22T00:16:55.151Z,27.93
2023-05-22T00:17:55.095Z,27.90
2023-05-22T00:18:55.132Z,27.90
2023-05-22T00:19:55.140Z,27.92
2023-05-22T00:20:55.165Z,27.92
2023-05-22T00:21:55.215Z,27.95
2023-05-22T00:22:55.256Z,27.93
2023-05-22T00:23:55.267Z,27.95
2023-05-22T00:24:55.360Z,27.99
2023-05-22T00:25:55.379Z,27.98
2023-05-22T00:26:55.479Z,27.96
2023-05-22T00:27:55.417Z,27.96
2023-05-22T00:28:55.472Z,27.96
2023-05-22T00:29:55.498Z,27.98
2023-05-22T00:30:55.522Z,28.00
2023-05-22T00:31:55.565Z,28.00
2023-05-22T00:32:55.680Z,28.03
2023-05-22T00:33:55.666Z,27.98
2023-05-22T00:34:55.703Z,28.00
2023-05-22T00:35:55.720Z,28.00
2023-05-22T00:36:55.730Z,28.00
2023-05-22T00:37:55.777Z,27.98
2023-05-22T00:38:55.802Z,27.97
2023-05-22T00:39:55.844Z,27.99
2023-05-22T00:40:55.859Z,27.97
2023-05-22T00:41:55.910Z,27.97
2023-05-22T00:42:55.949Z,27.96
2023-05-22T00:43:55.965Z,28.01
2023-05-22T00:44:56.001Z,28.01
2023-05-22T00:45:56.028Z,28.05
2023-05-22T00:46:56.127Z,28.03
2023-05-22T00:47:56.133Z,28.03
2023-05-22T00:48:56.240Z,28.05
2023-05-22T00:49:56.169Z,28.02
2023-05-22T00:50:56.221Z,28.04
2023-05-22T00:51:56.250Z,27.96
2023-05-22T00:52:56.286Z,28.02
2023-05-22T00:53:56.318Z,28.01
2023-05-22T00:54:56.377Z,28.00
2023-05-22T00:55:56.415Z,28.05
2023-05-22T00:56:56.450Z,28.01
2023-05-22T00:57:56.480Z,28.03
2023-05-22T00:58:56.526Z,28.01
2023-05-22T00:59:56.570Z,28.07
2023-05-22T01:00:56.609Z,28.08
2023-05-22T01:01:56.665Z,28.08
2023-05-22T01:02:56.756Z,28.02
2023-05-22T01:03:56.748Z,28.05
2023-05-22T01:04:56.734Z,28.05
2023-05-22T01:05:56.787Z,28.07
2023-05-22T01:06:56.816Z,28.02
2023-05-22T01:07:56.860Z,28.07
2023-05-22T01:08:56.887Z,28.02
2023-05-22T01:09:56.925Z,28.05
2023-05-22T01:10:57.103Z,28.05
2023-05-22T01:11:57.013Z,28.02
2023-05-22T01:12:57.027Z,28.03
2023-05-22T01:13:57.083Z,28.08
2023-05-22T01:14:57.110Z,28.13
2023-05-22T01:15:57.158Z,28.10
2023-05-22T01:16:57.192Z,28.09
2023-05-22T01:17:57.256Z,28.08
2023-05-22T01:18:57.281Z,28.12
2023-05-22T01:19:57.285Z,28.07
2023-05-22T01:20:57.314Z,28.09
2023-05-22T01:21:57.344Z,28.13
2023-05-22T01:22:57.413Z,28.10
2023-05-22T01:23:57.435Z,28.13
2023-05-22T01:24:57.460Z,28.10
2023-05-22T01:25:57.509Z,28.12
2023-05-22T01:26:57.544Z,28.09
2023-05-22T01:27:57.569Z,28.06
2023-05-22T01:28:57.620Z,28.09
2023-05-22T01:29:57.667Z,28.13
2023-05-22T01:30:57.687Z,28.08
2023-05-22T01:31:57.716Z,28.10
2023-05-22T01:32:57.815Z,28.07
2023-05-22T01:33:58.160Z,28.10
2023-05-22T01:34:57.850Z,28.15
2023-05-22T01:35:57.859Z,28.10
2023-05-22T01:36:57.903Z,28.16
2023-05-22T01:37:57.939Z,28.14
2023-05-22T01:38:57.955Z,28.15
2023-05-22T01:39:58.007Z,28.15
2023-05-22T01:40:58.049Z,28.16
2023-05-22T01:41:58.069Z,28.16
2023-05-22T01:42:58.106Z,28.15
2023-05-22T01:43:58.143Z,28.17
2023-05-22T01:44:58.183Z,28.17
2023-05-22T01:45:58.250Z,28.14
2023-05-22T01:46:58.238Z,28.14
2023-05-22T01:47:58.296Z,28.10
2023-05-22T01:48:58.341Z,28.15
2023-05-22T01:49:58.356Z,28.13
2023-05-22T01:50:58.378Z,28.14
2023-05-22T01:51:58.412Z,28.17
2023-05-22T01:52:58.465Z,28.22
2023-05-22T01:53:58.487Z,28.15
2023-05-22T01:54:58.513Z,28.18
2023-05-22T01:55:58.654Z,28.18
2023-05-22T01:56:58.594Z,28.15
2023-05-22T01:57:58.631Z,28.12
2023-05-22T01:58:58.648Z,28.15
2023-05-22T01:59:58.687Z,28.14
2023-05-22T02:00:58.747Z,28.12
2023-05-22T02:01:58.817Z,28.11
2023-05-22T02:02:58.881Z,28.18
2023-05-22T02:03:58.854Z,28.12
2023-05-22T02:04:58.865Z,28.16
2023-05-22T02:05:58.895Z,28.14
2023-05-22T02:06:58.934Z,28.15
2023-05-22T02:07:58.971Z,28.19
2023-05-22T02:08:58.990Z,28.18
2023-05-22T02:09:59.026Z,28.15
2023-05-22T02:10:59.057Z,28.15
2023-05-22T02:11:59.105Z,28.14
2023-05-22T02:12:59.130Z,28.13
2023-05-22T02:13:59.176Z,28.20
2023-05-22T02:14:59.218Z,28.18
2023-05-22T02:15:59.257Z,28.14
2023-05-22T02:16:59.274Z,28.20
2023-05-22T02:17:59.452Z,28.19
2023-05-22T02:18:59.387Z,28.16
2023-05-22T02:19:59.376Z,28.18
2023-05-22T02:20:59.448Z,28.19
2023-05-22T02:21:59.442Z,28.16
2023-05-22T02:22:59.460Z,28.19
2023-05-22T02:23:59.503Z,28.11
2023-05-22T02:24:59.533Z,28.11
2023-05-22T02:25:59.549Z,28.16
2023-05-22T02:26:59.581Z,28.08
2023-05-22T02:27:59.626Z,28.15
2023-05-22T02:28:59.649Z,28.13
2023-05-22T02:29:59.689Z,28.15
2023-05-22T02:30:59.774Z,28.20
2023-05-22T02:31:59.749Z,28.15
2023-05-22T02:32:59.825Z,28.15
2023-05-22T02:33:59.829Z,28.15
2023-05-22T02:34:59.861Z,28.18
2023-05-22T02:35:59.896Z,28.20
2023-05-22T02:36:59.929Z,28.16
2023-05-22T02:37:59.964Z,28.20
2023-05-22T02:38:59.979Z,28.19
2023-05-22T02:40:00.143Z,28.18
2023-05-22T02:41:00.053Z,28.21
2023-05-22T02:42:00.119Z,28.16
2023-05-22T02:43:00.133Z,28.16
2023-05-22T02:44:00.163Z,28.20
2023-05-22T02:45:00.168Z,28.21
2023-05-22T02:46:00.209Z,28.20
2023-05-22T02:47:00.340Z,28.19
2023-05-22T02:48:00.337Z,28.19
2023-05-22T02:49:00.287Z,28.20
2023-05-22T02:50:00.319Z,28.20
2023-05-22T02:51:00.365Z,28.19
2023-05-22T02:52:00.384Z,28.18
2023-05-22T02:53:00.435Z,28.19
2023-05-22T02:54:00.480Z,28.20
2023-05-22T02:55:00.509Z,28.19
2023-05-22T02:56:00.518Z,28.16
2023-05-22T02:57:00.564Z,28.21
2023-05-22T02:58:00.588Z,28.19
2023-05-22T02:59:00.625Z,28.19
2023-05-22T03:00:00.690Z,28.20
2023-05-22T03:01:00.690Z,28.16
2023-05-22T03:02:00.841Z,28.23
2023-05-22T03:03:00.889Z,28.21
2023-05-22T03:04:00.811Z,28.21
2023-05-22T03:05:00.807Z,28.18
2023-05-22T03:06:00.855Z,28.20
2023-05-22T03:07:00.885Z,28.21
2023-05-22T03:08:00.904Z,28.20
2023-05-22T03:09:00.933Z,28.19
2023-05-22T03:10:00.981Z,28.20
2023-05-22T03:11:01.007Z,28.16
2023-05-22T03:12:01.029Z,28.16
2023-05-22T03:13:01.061Z,28.18
2023-05-22T03:14:01.104Z,28.17
2023-05-22T03:15:01.142Z,28.21
2023-05-22T03:16:01.189Z,28.16
2023-05-22T03:17:01.212Z,28.11
2023-05-22T03:18:01.329Z,28.17
2023-05-22T03:19:01.310Z,28.13
2023-05-22T03:20:01.323Z,28.17
2023-05-22T03:21:01.337Z,28.11
2023-05-22T03:22:01.379Z,28.12
2023-05-22T03:23:01.427Z,28.09
2023-05-22T03:24:01.475Z,28.09
2023-05-22T03:25:01.578Z,28.12
2023-05-22T03:26:01.548Z,28.08
2023-05-22T03:27:01.573Z,28.09
2023-05-22T03:28:01.608Z,28.06
2023-05-22T03:29:01.680Z,28.09
2023-05-22T03:30:01.674Z,28.09
2023-05-22T03:31:01.729Z,28.14
2023-05-22T03:32:01.769Z,28.13
2023-05-22T03:33:01.878Z,28.14
2023-05-22T03:34:01.892Z,28.11
2023-05-22T03:35:01.865Z,28.14
2023-05-22T03:36:01.885Z,28.14
2023-05-22T03:37:01.924Z,28.15
2023-05-22T03:38:01.961Z,28.11
2023-05-22T03:39:01.992Z,28.12
2023-05-22T03:40:02.030Z,28.13
2023-05-22T03:41:02.077Z,28.08
2023-05-22T03:42:02.096Z,28.17
2023-05-22T03:43:02.149Z,28.11
2023-05-22T03:44:02.175Z,28.10
2023-05-22T03:45:02.247Z,28.09
2023-05-22T03:46:02.256Z,28.12
2023-05-22T03:47:02.366Z,28.12
2023-05-22T03:48:02.377Z,28.10
2023-05-22T03:49:02.336Z,28.13
2023-05-22T03:50:02.346Z,28.12
2023-05-22T03:51:02.382Z,28.17
2023-05-22T03:52:02.429Z,28.18
2023-05-22T03:53:02.471Z,28.14
2023-05-22T03:54:02.501Z,28.14
2023-05-22T03:55:02.535Z,28.13
2023-05-22T03:56:02.556Z,28.12
2023-05-22T03:57:02.609Z,28.09
2023-05-22T03:58:02.638Z,28.12
2023-05-22T03:59:02.683Z,28.08
2023-05-22T04:00:02.701Z,28.08
2023-05-22T04:01:02.720Z,28.12
2023-05-22T04:02:02.782Z,28.10
2023-05-22T04:03:02.895Z,28.11
2023-05-22T04:04:02.837Z,28.08
2023-05-22T04:05:02.916Z,28.06
2023-05-22T04:06:02.934Z,28.12
2023-05-22T04:07:02.941Z,28.13
2023-05-22T04:08:02.999Z,28.10
2023-05-22T04:09:03.137Z,28.08
2023-05-22T04:10:03.052Z,28.04
2023-05-22T04:11:03.097Z,28.08
2023-05-22T04:12:03.107Z,28.08
2023-05-22T04:13:03.157Z,28.09
2023-05-22T04:14:03.212Z,28.05
2023-05-22T04:15:03.225Z,28.01
2023-05-22T04:16:03.304Z,28.05
2023-05-22T04:17:03.297Z,28.05
2023-05-22T04:18:03.343Z,28.08
2023-05-22T04:19:03.465Z,28.07
2023-05-22T04:20:03.373Z,28.03
2023-05-22T04:21:03.428Z,28.05
2023-05-22T04:22:03.461Z,28.07
2023-05-22T04:23:03.497Z,28.05
2023-05-22T04:24:03.524Z,28.03
2023-05-22T04:25:03.561Z,28.07
2023-05-22T04:26:03.593Z,28.04
2023-05-22T04:27:03.618Z,28.04
2023-05-22T04:28:03.662Z,28.05
2023-05-22T04:29:03.691Z,28.03
2023-05-22T04:30:03.828Z,28.04
2023-05-22T04:31:03.794Z,28.00
2023-05-22T04:32:03.786Z,28.05
2023-05-22T04:33:03.889Z,28.00
2023-05-22T04:34:03.859Z,28.03
2023-05-22T04:35:03.900Z,27.98
2023-05-22T04:36:03.908Z,27.98
2023-05-22T04:37:03.955Z,28.00
2023-05-22T04:38:03.998Z,28.03
2023-05-22T04:39:04.010Z,28.03
2023-05-22T04:40:04.060Z,28.01
2023-05-22T04:41:04.076Z,27.99
2023-05-22T04:42:04.117Z,28.04
2023-05-22T04:43:04.145Z,28.03
2023-05-22T04:44:04.170Z,28.04
2023-05-22T04:45:04.212Z,28.06
2023-05-22T04:46:04.237Z,28.06
2023-05-22T04:47:06.026Z,28.04
2023-05-22T04:48:04.345Z,28.00
2023-05-22T04:49:04.261Z,27.97
2023-05-22T04:50:04.232Z,27.92
2023-05-22T04:51:04.246Z,27.90
2023-05-22T04:52:04.335Z,27.83
2023-05-22T04:53:04.460Z,27.87
2023-05-22T04:54:04.238Z,27.82
2023-05-22T04:55:05.929Z,27.80
2023-05-22T04:56:04.192Z,27.85
2023-05-22T04:57:04.190Z,27.87
2023-05-22T04:58:04.195Z,27.86
2023-05-22T04:59:04.188Z,27.85
2023-05-22T05:00:04.163Z,27.87
2023-05-22T05:01:04.193Z,27.86
2023-05-22T05:02:04.165Z,27.90
2023-05-22T05:03:04.308Z,27.94
2023-05-22T05:04:04.180Z,27.91
2023-05-22T05:05:04.141Z,27.90
2023-05-22T05:06:04.133Z,27.94
2023-05-22T05:07:04.120Z,27.91
2023-05-22T05:08:04.117Z,27.89
2023-05-22T05:09:04.119Z,27.95
2023-05-22T05:10:04.173Z,27.94
2023-05-22T05:11:04.186Z,27.95
2023-05-22T05:12:04.218Z,27.99
2023-05-22T05:13:04.261Z,28.00
2023-05-22T05:14:04.260Z,28.06
2023-05-22T05:15:04.374Z,28.07
2023-05-22T05:16:04.336Z,28.12
2023-05-22T05:17:04.391Z,28.15
2023-05-22T05:18:04.556Z,28.18
2023-05-22T05:19:04.433Z,28.16
2023-05-22T05:20:04.423Z,28.19
2023-05-22T05:21:04.456Z,28.16
2023-05-22T05:22:04.489Z,28.24
2023-05-22T05:23:04.517Z,28.31
2023-05-22T05:24:04.615Z,29.10
2023-05-22T05:25:04.564Z,28.56
2023-05-22T05:26:04.592Z,28.47
2023-05-22T05:27:04.651Z,28.47
2023-05-22T05:28:05.022Z,28.47
2023-05-22T05:29:04.673Z,28.52
2023-05-22T05:30:04.705Z,28.56
2023-05-22T05:31:04.732Z,28.46
2023-05-22T05:32:04.765Z,28.60
2023-05-22T05:33:04.872Z,28.83
2023-05-22T05:34:04.811Z,29.08
2023-05-22T05:35:04.814Z,29.28
2023-05-22T05:36:04.827Z,29.33
2023-05-22T05:37:04.957Z,30.23
2023-05-22T05:38:05.032Z,29.90
2023-05-22T05:39:04.906Z,30.25
2023-05-22T05:40:04.981Z,30.20
2023-05-22T05:41:04.903Z,30.64
2023-05-22T05:42:04.903Z,30.84
2023-05-22T05:43:05.863Z,30.55
2023-05-22T05:44:04.908Z,30.63
2023-05-22T05:45:04.911Z,30.58
2023-05-22T05:46:04.956Z,30.56
2023-05-22T05:47:04.893Z,30.66
2023-05-22T05:48:04.989Z,30.62
2023-05-22T05:49:04.893Z,30.68
2023-05-22T05:50:04.880Z,30.72
2023-05-22T05:51:04.883Z,30.72
2023-05-22T05:52:04.890Z,30.84
2023-05-22T05:53:04.878Z,30.88
2023-05-22T05:54:04.879Z,30.93
2023-05-22T05:55:04.879Z,30.95
2023-05-22T05:56:04.884Z,30.96
2023-05-22T05:57:04.872Z,30.99
2023-05-22T05:58:04.875Z,30.95
2023-05-22T05:59:04.899Z,30.99
2023-05-22T06:00:05.042Z,31.05
2023-05-22T06:01:04.905Z,31.10
2023-05-22T06:02:04.924Z,31.14
2023-05-22T06:03:04.968Z,31.13
2023-05-22T06:04:04.978Z,31.14
2023-05-22T06:05:05.000Z,31.18
2023-05-22T06:06:05.056Z,31.23
2023-05-22T06:07:04.999Z,31.17
2023-05-22T06:08:05.046Z,31.18
2023-05-22T06:09:05.082Z,31.18
2023-05-22T06:10:05.548Z,31.27
2023-05-22T06:11:05.192Z,31.19
2023-05-22T06:12:05.290Z,31.13
2023-05-22T06:13:05.291Z,31.10
2023-05-22T06:14:05.337Z,31.11
2023-05-22T06:15:05.396Z,31.11
2023-05-22T06:16:06.701Z,31.16
2023-05-22T06:17:05.521Z,31.10
2023-05-22T06:18:06.074Z,31.18
2023-05-22T06:19:05.720Z,31.22
2023-05-22T06:20:05.724Z,31.29
2023-05-22T06:21:05.810Z,31.24
2023-05-22T06:22:05.919Z,31.26
2023-05-22T06:23:05.899Z,31.21
2023-05-22T06:24:05.940Z,31.27
2023-05-22T06:25:06.025Z,31.25
2023-05-22T06:26:06.069Z,31.27
2023-05-22T06:27:06.537Z,31.28
2023-05-22T06:28:06.699Z,31.30
2023-05-22T06:29:06.230Z,31.31
2023-05-22T06:30:06.325Z,31.28
2023-05-22T06:31:06.372Z,31.32
2023-05-22T06:32:06.602Z,31.12
2023-05-22T06:33:06.539Z,31.06
2023-05-22T06:34:06.596Z,31.07
2023-05-22T06:35:06.600Z,31.10
2023-05-22T06:36:06.649Z,31.13
2023-05-22T06:37:07.054Z,31.26
2023-05-22T06:38:06.808Z,31.15
2023-05-22T06:39:06.846Z,31.09
2023-05-22T06:40:06.886Z,31.14
2023-05-22T06:41:06.961Z,31.10
2023-05-22T06:42:07.027Z,31.05
2023-05-22T06:43:07.107Z,31.03
2023-05-22T06:44:07.226Z,30.97
2023-05-22T06:45:07.197Z,30.95
2023-05-22T06:46:07.364Z,30.94
2023-05-22T06:47:07.585Z,30.85
2023-05-22T06:48:07.420Z,31.02
2023-05-22T06:49:07.421Z,30.97
2023-05-22T06:50:07.514Z,30.95
2023-05-22T06:51:07.532Z,31.05
2023-05-22T06:52:07.585Z,31.00
2023-05-22T06:53:07.655Z,31.08
2023-05-22T06:54:07.704Z,31.06
2023-05-22T06:55:07.804Z,31.06
2023-05-22T06:56:07.895Z,31.04
2023-05-22T06:57:07.823Z,31.09
2023-05-22T06:58:07.889Z,31.11
2023-05-22T06:59:07.930Z,31.16
2023-05-22T07:00:07.978Z,31.18
2023-05-22T07:01:08.089Z,31.21
2023-05-22T07:02:08.025Z,31.30
2023-05-22T07:03:08.097Z,31.31
2023-05-22T07:04:08.105Z,31.32
2023-05-22T07:05:08.162Z,31.29
2023-05-22T07:06:08.339Z,31.34
2023-05-22T07:07:08.255Z,31.36
2023-05-22T07:08:08.267Z,31.36
2023-05-22T07:09:08.296Z,31.36
2023-05-22T07:10:08.323Z,31.36
2023-05-22T07:11:08.394Z,31.38
2023-05-22T07:12:08.421Z,31.47
2023-05-22T07:13:08.431Z,31.46
2023-05-22T07:14:08.462Z,31.38
2023-05-22T07:15:08.483Z,31.41
2023-05-22T07:16:08.634Z,31.39
2023-05-22T07:17:08.569Z,31.54
2023-05-22T07:18:08.599Z,31.50
2023-05-22T07:19:08.644Z,31.57
2023-05-22T07:20:08.631Z,31.54
2023-05-22T07:21:08.668Z,31.50
2023-05-22T07:22:08.712Z,31.52
2023-05-22T07:23:08.710Z,31.61
2023-05-22T07:24:08.724Z,31.65
2023-05-22T07:25:08.790Z,31.64
2023-05-22T07:26:08.777Z,31.64
2023-05-22T07:27:08.783Z,31.77
2023-05-22T07:28:09.037Z,31.70
2023-05-22T07:29:08.851Z,31.79
2023-05-22T07:30:08.879Z,31.38
2023-05-22T07:31:08.954Z,31.42
2023-05-22T07:32:08.931Z,31.46
2023-05-22T07:33:09.105Z,31.72
2023-05-22T07:34:09.005Z,31.64
2023-05-22T07:35:09.028Z,31.81
2023-05-22T07:36:09.083Z,31.75
2023-05-22T07:37:09.158Z,31.69
2023-05-22T07:38:09.584Z,31.66
2023-05-22T07:39:09.177Z,31.78
2023-05-22T07:40:09.215Z,31.85
2023-05-22T07:41:09.244Z,31.98
2023-05-22T07:42:09.300Z,32.08
2023-05-22T07:43:09.576Z,31.96
2023-05-22T07:44:09.330Z,32.09
2023-05-22T07:45:09.353Z,32.19
2023-05-22T07:46:09.446Z,31.89
2023-05-22T07:47:09.424Z,32.34
2023-05-22T07:48:09.606Z,32.05
2023-05-22T07:49:09.452Z,31.86
2023-05-22T07:50:09.580Z,31.93
2023-05-22T07:51:09.497Z,31.52
2023-05-22T07:52:09.535Z,31.56
2023-05-22T07:53:09.554Z,31.71
2023-05-22T07:54:09.590Z,31.37
2023-05-22T07:55:09.593Z,31.41
2023-05-22T07:56:09.610Z,31.54
2023-05-22T07:57:09.644Z,31.26
2023-05-22T07:58:10.084Z,31.30
2023-05-22T07:59:09.677Z,31.35
2023-05-22T08:00:10.101Z,31.01
2023-05-22T08:01:09.853Z,30.91
2023-05-22T08:02:09.895Z,30.97
2023-05-22T08:03:10.258Z,30.98
2023-05-22T08:04:10.126Z,30.85
2023-05-22T08:05:09.829Z,30.65
2023-05-22T08:06:10.067Z,30.72
2023-05-22T08:07:09.811Z,30.89
2023-05-22T08:08:09.834Z,30.78
2023-05-22T08:09:09.866Z,30.74
2023-05-22T08:10:09.884Z,31.02
2023-05-22T08:11:10.370Z,30.89
2023-05-22T08:12:09.927Z,30.65
2023-05-22T08:13:10.034Z,30.49
2023-05-22T08:14:09.972Z,30.80
2023-05-22T08:15:09.999Z,30.40
2023-05-22T08:16:10.005Z,30.32
2023-05-22T08:17:10.043Z,30.51
2023-05-22T08:18:10.149Z,30.16
2023-05-22T08:19:10.207Z,30.24
2023-05-22T08:20:10.319Z,30.42
2023-05-22T08:21:10.092Z,30.03
2023-05-22T08:22:10.087Z,30.01
2023-05-22T08:23:10.575Z,29.81
2023-05-22T08:24:10.113Z,29.80
2023-05-22T08:25:10.106Z,29.64
2023-05-22T08:26:10.118Z,29.61
2023-05-22T08:27:10.155Z,29.70
2023-05-22T08:28:10.153Z,29.28
2023-05-22T08:29:10.182Z,29.38
2023-05-22T08:30:10.211Z,29.37
2023-05-22T08:31:10.277Z,29.22
2023-05-22T08:32:10.242Z,28.79
2023-05-22T08:33:10.322Z,29.10
2023-05-22T08:34:10.621Z,28.70
2023-05-22T08:35:10.347Z,28.85
2023-05-22T08:36:10.393Z,28.92
2023-05-22T08:37:10.409Z,28.81
2023-05-22T08:38:10.467Z,29.14
2023-05-22T08:39:10.582Z,29.13
2023-05-22T08:40:10.454Z,29.20
2023-05-22T08:41:10.476Z,29.28
2023-05-22T08:42:10.492Z,29.40
2023-05-22T08:43:10.499Z,29.41
2023-05-22T08:44:10.495Z,29.55
2023-05-22T08:45:10.534Z,29.78
2023-05-22T08:46:10.519Z,29.94
2023-05-22T08:47:10.557Z,30.15
2023-05-22T08:48:10.513Z,30.29
2023-05-22T08:49:10.582Z,30.40
2023-05-22T08:50:10.528Z,30.70
2023-05-22T08:51:10.496Z,30.70
2023-05-22T08:52:10.537Z,30.85
2023-05-22T08:53:10.537Z,30.94
2023-05-22T08:54:10.550Z,31.01
2023-05-22T08:55:10.584Z,31.08
2023-05-22T08:56:10.659Z,31.36
2023-05-22T08:57:10.710Z,31.45
2023-05-22T08:58:10.725Z,31.32
2023-05-22T08:59:11.093Z,31.38
2023-05-22T09:00:10.853Z,31.45
2023-05-22T09:01:10.901Z,31.51
2023-05-22T09:02:10.928Z,31.52
2023-05-22T09:03:11.039Z,31.54
2023-05-22T09:04:11.081Z,31.61
2023-05-22T09:05:11.084Z,31.51
2023-05-22T09:06:11.132Z,31.70
2023-05-22T09:07:11.265Z,31.68
2023-05-22T09:08:19.856Z,31.84
2023-05-22T09:09:12.257Z,31.93
2023-05-22T09:10:11.266Z,31.88
2023-05-22T09:11:11.271Z,31.81
2023-05-22T09:12:11.237Z,31.80
2023-05-22T09:13:11.239Z,31.71
2023-05-22T09:14:11.236Z,31.75
2023-05-22T09:15:11.225Z,31.81
2023-05-22T09:16:11.235Z,31.82
2023-05-22T09:17:11.460Z,31.82
2023-05-22T09:18:11.628Z,31.83
2023-05-22T09:19:11.416Z,31.85
2023-05-22T09:20:11.442Z,31.83
2023-05-22T09:21:25.810Z,31.85
2023-05-22T09:22:12.496Z,31.85
2023-05-22T09:23:11.516Z,31.88
2023-05-22T09:24:11.714Z,31.84
2023-05-22T09:25:11.491Z,31.86
2023-05-22T09:26:11.484Z,31.86
2023-05-22T09:27:11.471Z,31.93
2023-05-22T09:28:11.472Z,31.83
2023-05-22T09:29:11.495Z,31.97
2023-05-22T09:30:11.466Z,31.89
2023-05-22T09:31:11.591Z,31.82
2023-05-22T09:32:11.586Z,31.78
2023-05-22T09:33:12.148Z,31.70
2023-05-22T09:34:11.678Z,31.68
2023-05-22T09:35:11.748Z,31.84
2023-05-22T09:36:11.797Z,31.84
2023-05-22T09:37:11.831Z,31.74
2023-05-22T09:38:12.482Z,31.58
2023-05-22T09:39:11.948Z,31.55
2023-05-22T09:40:12.016Z,31.57
2023-05-22T09:41:12.046Z,31.54
2023-05-22T09:42:12.090Z,31.53
2023-05-22T09:43:12.137Z,31.54
2023-05-22T09:44:12.176Z,31.52
2023-05-22T09:45:12.216Z,31.47
2023-05-22T09:46:12.325Z,31.54
2023-05-22T09:47:12.332Z,31.48
2023-05-22T09:48:12.370Z,31.47
2023-05-22T09:49:15.748Z,31.51
2023-05-22T09:50:12.426Z,31.58
2023-05-22T09:51:12.423Z,31.53
2023-05-22T09:52:12.490Z,31.43
2023-05-22T09:53:12.389Z,31.49
2023-05-22T09:54:12.399Z,31.49
2023-05-22T09:55:12.383Z,31.53
2023-05-22T09:56:12.387Z,31.62
2023-05-22T09:57:12.352Z,31.54
2023-05-22T09:58:12.369Z,31.58
2023-05-22T09:59:12.339Z,31.65
2023-05-22T10:00:12.364Z,31.66
2023-05-22T10:01:12.368Z,31.58
2023-05-22T10:02:12.391Z,31.57
2023-05-22T10:03:12.342Z,31.65
2023-05-22T10:04:12.417Z,31.60
2023-05-22T10:05:12.318Z,31.59
2023-05-22T10:06:12.312Z,31.57
2023-05-22T10:07:12.289Z,31.52
2023-05-22T10:08:12.306Z,31.51
2023-05-22T10:09:12.284Z,31.49
2023-05-22T10:10:12.300Z,31.47
2023-05-22T10:11:12.275Z,31.50
2023-05-22T10:12:12.370Z,31.50
2023-05-22T10:13:12.264Z,31.44
2023-05-22T10:14:12.248Z,31.40
2023-05-22T10:15:12.251Z,31.47
2023-05-22T10:16:12.333Z,31.38
2023-05-22T10:17:12.225Z,31.37
2023-05-22T10:18:12.285Z,31.43
2023-05-22T10:19:12.667Z,31.52
2023-05-22T10:20:12.293Z,31.62
2023-05-22T10:21:12.309Z,31.63
2023-05-22T10:22:12.363Z,31.75
2023-05-22T10:23:12.662Z,31.66
2023-05-22T10:24:12.378Z,31.63
2023-05-22T10:25:12.390Z,31.57
2023-05-22T10:26:12.421Z,31.55
2023-05-22T10:27:12.444Z,31.83
2023-05-22T10:28:12.556Z,31.71
2023-05-22T10:29:12.681Z,31.83
2023-05-22T10:30:12.536Z,31.81
2023-05-22T10:31:12.551Z,31.66
2023-05-22T10:32:12.604Z,31.51
2023-05-22T10:33:12.761Z,31.03
2023-05-22T10:34:12.623Z,30.47
2023-05-22T10:35:12.655Z,30.38
2023-05-22T10:36:12.671Z,30.35
2023-05-22T10:37:17.482Z,30.36
2023-05-22T10:38:13.697Z,30.25
2023-05-22T10:39:12.674Z,30.15
2023-05-22T10:40:12.678Z,29.87
2023-05-22T10:41:12.672Z,29.47
2023-05-22T10:42:12.649Z,29.53
2023-05-22T10:43:12.637Z,29.38
2023-05-22T10:44:12.722Z,29.30
2023-05-22T10:45:12.623Z,29.12
2023-05-22T10:46:12.712Z,29.09
2023-05-22T10:47:12.622Z,28.77
2023-05-22T10:48:12.670Z,28.78
2023-05-22T10:49:12.614Z,26.74
2023-05-22T10:50:12.611Z,26.16
2023-05-22T10:51:12.599Z,26.56
2023-05-22T10:52:12.579Z,26.45
2023-05-22T10:53:12.575Z,26.52
2023-05-22T10:54:12.597Z,26.49
2023-05-22T10:55:12.629Z,26.38
2023-05-22T10:56:12.646Z,26.46
2023-05-22T10:57:12.688Z,26.46
2023-05-22T10:58:12.687Z,26.45
2023-05-22T10:59:12.697Z,26.62
2023-05-22T11:00:12.822Z,26.74
2023-05-22T11:01:12.841Z,26.90
2023-05-22T11:02:12.830Z,27.09
2023-05-22T11:03:17.742Z,27.02
2023-05-22T11:04:13.829Z,27.01
2023-05-22T11:05:12.842Z,26.93
2023-05-22T11:06:12.768Z,26.99
2023-05-22T11:07:12.770Z,26.92
2023-05-22T11:08:12.746Z,26.70
2023-05-22T11:09:12.765Z,26.60
2023-05-22T11:10:12.774Z,26.77
2023-05-22T11:11:12.809Z,26.63
2023-05-22T11:12:12.809Z,26.63
2023-05-22T11:13:13.148Z,26.53
2023-05-22T11:14:12.866Z,26.37
2023-05-22T11:15:12.886Z,25.95
2023-05-22T11:16:13.013Z,25.07
2023-05-22T11:17:12.986Z,25.20
2023-05-22T11:18:13.219Z,25.23
2023-05-22T11:20:13.248Z,25.46
2023-05-22T11:21:13.028Z,25.52
2023-05-22T11:22:12.964Z,25.57
2023-05-22T11:23:12.981Z,25.62
2023-05-22T11:24:12.964Z,25.57
2023-05-22T11:25:12.955Z,25.54
2023-05-22T11:26:12.950Z,25.60
2023-05-22T11:27:12.965Z,25.60
2023-05-22T11:28:12.953Z,25.59
2023-05-22T11:29:12.947Z,25.60
2023-05-22T11:30:12.910Z,25.60
2023-05-22T11:31:12.924Z,25.60
2023-05-22T11:32:12.897Z,25.60
2023-05-22T11:33:13.227Z,25.62
2023-05-22T11:34:12.889Z,25.64
2023-05-22T11:35:12.867Z,25.65
2023-05-22T11:36:12.868Z,25.67
2023-05-22T11:37:12.860Z,25.69
2023-05-22T11:38:12.887Z,25.70
2023-05-22T11:39:12.845Z,25.70
2023-05-22T11:40:12.837Z,25.70
2023-05-22T11:41:12.838Z,25.72
2023-05-22T11:42:12.821Z,25.75
2023-05-22T11:43:12.855Z,25.74
2023-05-22T11:44:12.826Z,25.76
2023-05-22T11:45:12.803Z,25.78
2023-05-22T11:46:12.846Z,25.78
2023-05-22T11:47:12.808Z,25.80
2023-05-22T11:48:15.374Z,25.83
2023-05-22T11:49:12.782Z,25.83
2023-05-22T11:50:12.813Z,25.80
2023-05-22T11:51:12.787Z,25.84
2023-05-22T11:52:12.766Z,25.83
2023-05-22T11:53:12.798Z,25.87
2023-05-22T11:54:12.753Z,25.89
2023-05-22T11:55:12.756Z,25.90
2023-05-22T11:56:12.742Z,25.93
2023-05-22T11:57:12.727Z,25.88
2023-05-22T11:58:12.784Z,25.91
2023-05-22T11:59:12.698Z,25.85
2023-05-22T12:00:12.731Z,25.92
2023-05-22T12:01:12.687Z,25.90
2023-05-22T12:02:12.678Z,25.93
2023-05-22T12:03:13.247Z,26.23
2023-05-22T12:04:12.852Z,28.57
2023-05-22T12:05:12.660Z,27.45
2023-05-22T12:06:14.527Z,27.14
2023-05-22T12:07:12.677Z,27.05
2023-05-22T12:08:12.696Z,26.95
2023-05-22T12:09:12.656Z,26.92
2023-05-22T12:10:12.700Z,27.07
2023-05-22T12:11:12.615Z,27.02
2023-05-22T12:12:12.607Z,26.91
2023-05-22T12:13:12.607Z,26.98
2023-05-22T12:14:12.616Z,27.23
2023-05-22T12:15:12.612Z,27.54
2023-05-22T12:16:12.668Z,27.26
2023-05-22T12:17:12.601Z,27.27
2023-05-22T12:18:12.614Z,27.18
2023-05-22T12:19:12.633Z,27.11
2023-05-22T12:20:12.647Z,27.10
2023-05-22T12:21:12.550Z,27.14
2023-05-22T12:22:12.550Z,27.09
2023-05-22T12:23:12.540Z,27.14
2023-05-22T12:24:12.554Z,27.13
2023-05-22T12:25:12.542Z,27.18
2023-05-22T12:26:12.539Z,27.19
2023-05-22T12:27:12.530Z,27.25
2023-05-22T12:28:12.516Z,27.30
2023-05-22T12:29:12.506Z,27.34
2023-05-22T12:30:12.491Z,27.31
2023-05-22T12:31:12.493Z,27.33
2023-05-22T12:32:12.646Z,27.37
2023-05-22T12:33:12.661Z,27.36
2023-05-22T12:34:12.688Z,27.33
2023-05-22T12:35:12.728Z,27.38
2023-05-22T12:36:12.880Z,27.37
2023-05-22T12:37:12.857Z,27.37
2023-05-22T12:38:12.924Z,27.38
2023-05-22T12:39:12.987Z,27.37
2023-05-22T12:40:13.042Z,27.39
2023-05-22T12:41:13.066Z,27.36
2023-05-22T12:42:13.147Z,27.33
2023-05-22T12:43:13.214Z,27.26
2023-05-22T12:44:13.327Z,27.33
2023-05-22T12:45:13.364Z,27.29
2023-05-22T12:46:13.398Z,27.30
2023-05-22T12:47:13.448Z,27.24
2023-05-22T12:48:13.564Z,27.20
2023-05-22T12:49:13.583Z,27.17
2023-05-22T12:50:13.650Z,27.16
2023-05-22T12:51:13.684Z,27.10
2023-05-22T12:52:13.847Z,27.13
2023-05-22T12:53:13.818Z,27.09
2023-05-22T12:54:13.893Z,27.10